createdAt,value
2018-09-19T00:00:09.994Z,19.66
2018-09-19T00:02:14.880Z,19.55
2018-09-19T00:04:17.800Z,19.58
2018-09-19T00:06:20.751Z,19.53
2018-09-19T00:08:23.743Z,19.54
2018-09-19T00:10:26.714Z,19.46
2018-09-19T00:12:29.683Z,19.66
2018-09-19T00:14:32.753Z,19.56
2018-09-19T00:16:35.830Z,19.44
2018-09-19T00:18:38.909Z,19.60
2018-09-19T00:20:43.980Z,19.50
2018-09-19T00:22:47.005Z,19.26
2018-09-19T00:24:50.090Z,19.54
2018-09-19T00:26:53.449Z,19.28
2018-09-19T00:28:56.466Z,19.27
2018-09-19T00:30:59.501Z,19.34
2018-09-19T00:33:02.545Z,19.38
2018-09-19T00:35:05.547Z,19.11
2018-09-19T00:37:08.583Z,19.11
2018-09-19T00:39:13.387Z,19.37
2018-09-19T00:41:16.399Z,19.36
2018-09-19T00:43:19.410Z,19.28
2018-09-19T00:45:22.414Z,19.17
2018-09-19T00:47:25.425Z,19.15
2018-09-19T00:49:28.475Z,19.11
2018-09-19T00:51:31.521Z,19.03
2018-09-19T00:53:34.496Z,18.80
2018-09-19T00:55:37.794Z,18.83
2018-09-19T00:57:40.777Z,18.77
2018-09-19T00:59:45.540Z,18.89
2018-09-19T01:01:48.828Z,18.80
2018-09-19T01:03:51.878Z,18.69
2018-09-19T01:05:54.906Z,18.66
2018-09-19T01:07:58.193Z,18.65
2018-09-19T01:10:01.239Z,18.76
2018-09-19T01:12:04.503Z,18.67
2018-09-19T01:14:07.509Z,18.65
2018-09-19T01:16:10.534Z,18.77
2018-09-19T01:18:15.224Z,18.72
2018-09-19T01:20:18.218Z,18.93
2018-09-19T01:22:21.204Z,18.77
2018-09-19T01:24:24.221Z,18.57
2018-09-19T01:26:27.233Z,18.56
2018-09-19T01:28:30.171Z,18.67
2018-09-19T01:30:33.129Z,18.64
2018-09-19T01:32:36.109Z,18.55
2018-09-19T01:34:39.063Z,18.65
2018-09-19T01:36:43.802Z,18.54
2018-09-19T01:38:46.781Z,18.68
2018-09-19T01:40:49.751Z,18.59
2018-09-19T01:42:52.745Z,18.82
2018-09-19T01:44:55.714Z,18.77
2018-09-19T01:46:58.656Z,18.70
2018-09-19T01:49:01.646Z,18.72
2018-09-19T01:51:04.582Z,18.59
2018-09-19T01:53:07.843Z,18.48
2018-09-19T01:55:10.809Z,18.50
2018-09-19T01:57:15.419Z,18.67
2018-09-19T01:59:18.392Z,18.57
2018-09-19T02:01:21.646Z,18.39
2018-09-19T02:03:24.625Z,18.14
2018-09-19T02:05:27.602Z,18.11
2018-09-19T02:07:30.572Z,18.29
2018-09-19T02:09:33.545Z,18.32
2018-09-19T02:11:36.504Z,18.36
2018-09-19T02:13:39.505Z,18.52
2018-09-19T02:15:44.285Z,18.62
2018-09-19T02:17:47.293Z,18.78
2018-09-19T02:19:50.285Z,18.80
2018-09-19T02:21:53.229Z,18.79
2018-09-19T02:23:56.257Z,18.87
2018-09-19T02:25:59.197Z,18.92
2018-09-19T02:28:02.303Z,18.91
2018-09-19T02:30:05.310Z,18.83
2018-09-19T02:32:08.275Z,18.78
2018-09-19T02:34:13.192Z,18.83
2018-09-19T02:36:23.454Z,18.96
2018-09-19T02:38:26.482Z,18.90
2018-09-19T02:40:29.427Z,18.80
2018-09-19T02:42:32.456Z,18.89
2018-09-19T02:44:35.461Z,18.79
2018-09-19T02:46:38.410Z,18.78
2018-09-19T02:48:42.810Z,18.82
2018-09-19T02:50:45.799Z,18.78
2018-09-19T02:52:53.667Z,18.82
2018-09-19T02:54:56.675Z,18.74
2018-09-19T02:56:59.618Z,18.67
2018-09-19T02:59:02.747Z,18.65
2018-09-19T03:01:05.716Z,18.59
2018-09-19T03:03:08.690Z,18.52
2018-09-19T03:05:12.897Z,18.41
2018-09-19T03:07:15.861Z,18.31
2018-09-19T03:09:18.847Z,18.27
2018-09-19T03:11:21.825Z,18.21
2018-09-19T03:13:24.782Z,18.10
2018-09-19T03:15:27.809Z,18.08
2018-09-19T03:17:30.866Z,18.15
2018-09-19T03:19:33.746Z,18.11
2018-09-19T03:21:36.711Z,18.10
2018-09-19T03:23:39.734Z,18.13
2018-09-19T03:25:43.205Z,18.50
2018-09-19T03:27:46.209Z,18.23
2018-09-19T03:29:49.668Z,18.10
2018-09-19T03:31:52.646Z,18.14
2018-09-19T03:33:55.613Z,18.01
2018-09-19T03:35:58.592Z,17.90
2018-09-19T03:38:01.580Z,17.89
2018-09-19T03:40:04.726Z,17.81
2018-09-19T03:42:07.737Z,17.73
2018-09-19T03:44:10.733Z,17.88
2018-09-19T03:46:15.408Z,17.84
2018-09-19T03:48:18.420Z,17.65
2018-09-19T03:50:21.479Z,17.67
2018-09-19T03:52:24.525Z,17.62
2018-09-19T03:54:27.552Z,17.59
2018-09-19T03:56:30.618Z,17.55
2018-09-19T03:58:33.606Z,17.44
2018-09-19T04:00:36.631Z,17.53
2018-09-19T04:02:39.602Z,17.56
2018-09-19T04:04:43.889Z,17.40
2018-09-19T04:06:46.937Z,17.32
2018-09-19T04:08:49.912Z,17.30
2018-09-19T04:10:53.185Z,17.29
2018-09-19T04:12:56.146Z,17.26
2018-09-19T04:14:59.208Z,17.10
2018-09-19T04:17:02.246Z,17.06
2018-09-19T04:19:05.546Z,17.08
2018-09-19T04:21:08.544Z,17.19
2018-09-19T04:23:12.787Z,17.14
2018-09-19T04:25:15.804Z,17.03
2018-09-19T04:27:18.780Z,17.01
2018-09-19T04:29:21.892Z,17.05
2018-09-19T04:31:24.968Z,16.91
2018-09-19T04:33:27.939Z,16.89
2018-09-19T04:35:31.046Z,17.14
2018-09-19T04:37:34.027Z,16.91
2018-09-19T04:39:37.070Z,16.78
2018-09-19T04:41:40.143Z,16.77
2018-09-19T04:43:44.970Z,16.76
2018-09-19T04:45:48.324Z,16.77
2018-09-19T04:47:51.352Z,16.74
2018-09-19T04:49:54.338Z,16.68
2018-09-19T04:51:57.512Z,16.67
2018-09-19T04:54:00.492Z,16.65
2018-09-19T04:56:03.504Z,16.66
2018-09-19T04:58:06.553Z,16.66
2018-09-19T05:00:09.576Z,16.75
2018-09-19T05:02:13.882Z,16.62
2018-09-19T05:04:16.889Z,16.58
2018-09-19T05:06:19.894Z,16.66
2018-09-19T05:08:22.993Z,16.63
2018-09-19T05:10:26.014Z,16.58
2018-09-19T05:12:28.972Z,16.52
2018-09-19T05:14:32.092Z,16.42
2018-09-19T05:16:35.085Z,16.41
2018-09-19T05:18:38.072Z,16.42
2018-09-19T05:20:42.334Z,16.36
2018-09-19T05:22:45.387Z,16.37
2018-09-19T05:24:48.443Z,16.37
2018-09-19T05:26:51.458Z,16.38
2018-09-19T05:28:54.490Z,16.38
2018-09-19T05:30:57.502Z,16.35
2018-09-19T05:33:00.477Z,16.41
2018-09-19T05:35:03.612Z,16.43
2018-09-19T05:37:06.566Z,16.47
2018-09-19T05:39:09.587Z,16.47
2018-09-19T05:41:14.230Z,16.55
2018-09-19T05:43:17.225Z,16.61
2018-09-19T05:45:20.232Z,16.64
2018-09-19T05:47:23.188Z,16.68
2018-09-19T05:49:26.284Z,16.74
2018-09-19T05:51:29.270Z,16.89
2018-09-19T05:53:32.282Z,16.87
2018-09-19T05:55:35.288Z,16.89
2018-09-19T05:57:38.288Z,16.95
2018-09-19T05:59:43.111Z,16.98
2018-09-19T06:01:46.089Z,17.07
2018-09-19T06:03:49.371Z,17.15
2018-09-19T06:05:52.464Z,17.23
2018-09-19T06:07:55.512Z,17.56
2018-09-19T06:09:58.769Z,17.97
2018-09-19T06:12:01.723Z,17.79
2018-09-19T06:14:04.765Z,17.81
2018-09-19T06:16:07.766Z,18.24
2018-09-19T06:18:10.738Z,18.38
2018-09-19T06:20:15.212Z,18.43
2018-09-19T06:22:18.175Z,18.51
2018-09-19T06:24:21.183Z,18.65
2018-09-19T06:26:24.765Z,18.64
2018-09-19T06:28:27.703Z,18.89
2018-09-19T06:30:30.653Z,18.77
2018-09-19T06:32:33.764Z,18.82
2018-09-19T06:34:36.726Z,18.82
2018-09-19T06:36:39.683Z,18.80
2018-09-19T06:38:44.389Z,18.86
2018-09-19T06:40:47.513Z,18.89
2018-09-19T06:42:50.421Z,19.00
2018-09-19T06:44:53.454Z,19.11
2018-09-19T06:46:56.472Z,19.23
2018-09-19T06:48:59.551Z,19.37
2018-09-19T06:51:02.674Z,19.44
2018-09-19T06:53:05.738Z,19.45
2018-09-19T06:55:08.765Z,19.47
2018-09-19T06:57:13.854Z,19.48
2018-09-19T06:59:16.813Z,19.66
2018-09-19T07:01:19.887Z,20.15
2018-09-19T07:03:22.921Z,20.04
2018-09-19T07:05:25.937Z,20.02
2018-09-19T07:07:29.549Z,20.19
2018-09-19T07:09:32.599Z,20.41
2018-09-19T07:11:35.673Z,20.48
2018-09-19T07:13:38.645Z,20.64
2018-09-19T07:15:43.539Z,20.69
2018-09-19T07:17:46.575Z,20.89
2018-09-19T07:19:49.763Z,21.03
2018-09-19T07:21:54.767Z,21.17
2018-09-19T07:23:58.113Z,21.27
2018-09-19T07:26:01.068Z,21.46
2018-09-19T07:28:04.537Z,21.51
2018-09-19T07:30:07.557Z,21.61
2018-09-19T07:32:10.519Z,21.75
2018-09-19T07:34:15.255Z,21.81
2018-09-19T07:36:18.254Z,21.97
2018-09-19T07:38:21.349Z,21.97
2018-09-19T07:40:24.423Z,22.19
2018-09-19T07:42:27.429Z,22.51
2018-09-19T07:44:30.397Z,22.91
2018-09-19T07:46:33.409Z,23.12
2018-09-19T07:48:36.443Z,23.25
2018-09-19T07:50:39.383Z,23.02
2018-09-19T07:52:44.017Z,23.24
2018-09-19T07:54:47.371Z,23.49
2018-09-19T07:56:50.359Z,23.67
2018-09-19T07:58:53.655Z,23.55
2018-09-19T08:03:23.080Z,23.88
2018-09-19T08:05:32.670Z,23.93
2018-09-19T08:07:43.975Z,24.28
2018-09-19T08:09:53.273Z,24.32
2018-09-19T08:12:02.434Z,24.51
2018-09-19T08:14:13.780Z,24.51
2018-09-19T08:16:23.109Z,24.62
2018-09-19T08:18:32.406Z,24.75
2018-09-19T08:20:43.226Z,24.99
2018-09-19T08:22:52.602Z,25.31
2018-09-19T08:25:01.730Z,25.53
2018-09-19T08:27:10.924Z,25.68
2018-09-19T08:29:20.031Z,25.69
2018-09-19T08:31:29.264Z,25.58
2018-09-19T08:33:38.279Z,25.41
2018-09-19T08:35:47.780Z,25.79
2018-09-19T08:37:56.888Z,25.99
2018-09-19T08:40:06.716Z,25.51
2018-09-19T08:42:16.734Z,25.86
2018-09-19T08:44:26.110Z,26.24
2018-09-19T08:46:35.216Z,26.40
2018-09-19T08:48:44.549Z,26.37
2018-09-19T08:50:53.909Z,26.45
2018-09-19T08:53:03.611Z,26.58
2018-09-19T08:55:15.149Z,26.63
2018-09-19T08:57:24.322Z,26.55
2018-09-19T08:59:33.674Z,26.73
2018-09-19T09:01:45.043Z,26.45
2018-09-19T09:03:54.186Z,26.58
2018-09-19T09:06:03.435Z,26.62
2018-09-19T09:08:14.935Z,26.96
2018-09-19T09:10:24.257Z,26.94
2018-09-19T09:12:33.381Z,27.19
2018-09-19T09:14:44.451Z,27.22
2018-09-19T09:16:53.619Z,27.67
2018-09-19T09:18:57.599Z,27.04
2018-09-19T09:21:00.583Z,27.39
2018-09-19T09:23:03.576Z,27.66
2018-09-19T09:25:06.618Z,27.72
2018-09-19T09:27:09.641Z,27.56
2018-09-19T09:29:14.238Z,27.05
2018-09-19T09:31:17.277Z,27.42
2018-09-19T09:33:20.260Z,27.57
2018-09-19T09:35:23.235Z,27.57
2018-09-19T09:37:26.288Z,27.44
2018-09-19T09:39:29.321Z,27.36
2018-09-19T09:41:32.315Z,27.38
2018-09-19T09:43:35.446Z,27.44
2018-09-19T09:45:38.425Z,27.61
2018-09-19T09:47:43.317Z,27.70
2018-09-19T09:49:46.623Z,27.39
2018-09-19T09:51:49.688Z,27.59
2018-09-19T09:53:52.682Z,28.00
2018-09-19T09:55:55.724Z,28.16
2018-09-19T09:57:59.057Z,28.42
2018-09-19T10:00:02.052Z,28.37
2018-09-19T10:02:05.136Z,27.89
2018-09-19T10:04:08.167Z,28.11
2018-09-19T10:06:11.160Z,28.31
2018-09-19T10:08:15.126Z,28.40
2018-09-19T10:10:18.364Z,28.38
2018-09-19T10:12:21.385Z,27.82
2018-09-19T10:14:24.333Z,27.99
2018-09-19T10:16:27.406Z,28.23
2018-09-19T10:18:30.446Z,28.21
2018-09-19T10:20:33.491Z,28.11
2018-09-19T10:22:36.534Z,28.65
2018-09-19T10:24:39.604Z,28.41
2018-09-19T10:26:44.326Z,28.86
2018-09-19T10:28:47.706Z,28.88
2018-09-19T10:30:50.746Z,28.81
2018-09-19T10:32:53.789Z,28.75
2018-09-19T10:34:57.098Z,28.75
2018-09-19T10:37:00.083Z,28.88
2018-09-19T10:39:03.671Z,28.70
2018-09-19T10:41:07.080Z,28.72
2018-09-19T10:43:10.021Z,28.76
2018-09-19T10:45:14.964Z,28.77
2018-09-19T10:47:18.003Z,29.44
2018-09-19T10:49:21.049Z,28.74
2018-09-19T10:51:24.112Z,28.83
2018-09-19T10:53:27.093Z,28.72
2018-09-19T10:55:30.215Z,28.65
2018-09-19T10:57:33.491Z,28.72
2018-09-19T10:59:36.529Z,28.46
2018-09-19T11:01:39.581Z,28.70
2018-09-19T11:03:43.996Z,29.42
2018-09-19T11:05:47.005Z,29.34
2018-09-19T11:07:50.075Z,29.29
2018-09-19T11:09:53.095Z,28.86
2018-09-19T11:11:56.071Z,28.96
2018-09-19T11:13:59.055Z,29.43
2018-09-19T11:16:02.329Z,29.65
2018-09-19T11:18:05.445Z,30.00
2018-09-19T11:20:08.449Z,29.63
2018-09-19T11:22:12.842Z,29.72
2018-09-19T11:24:15.820Z,30.05
2018-09-19T11:26:18.820Z,29.30
2018-09-19T11:28:21.837Z,30.12
2018-09-19T11:30:24.817Z,30.44
2018-09-19T11:32:27.815Z,30.38
2018-09-19T11:34:31.149Z,30.07
2018-09-19T11:36:34.174Z,29.72
2018-09-19T11:38:37.152Z,30.07
2018-09-19T11:40:40.156Z,29.88
2018-09-19T11:42:44.991Z,30.31
2018-09-19T11:44:48.010Z,30.70
2018-09-19T11:46:51.201Z,30.53
2018-09-19T11:48:54.180Z,30.26
2018-09-19T11:50:57.418Z,30.86
2018-09-19T11:53:00.460Z,30.56
2018-09-19T11:55:03.520Z,30.38
2018-09-19T11:57:06.576Z,30.44
2018-09-19T11:59:09.560Z,30.28
2018-09-19T12:01:13.746Z,30.03
2018-09-19T12:03:16.774Z,30.21
2018-09-19T12:05:19.792Z,30.34
2018-09-19T12:07:22.813Z,30.70
2018-09-19T12:09:25.784Z,30.62
2018-09-19T12:11:28.763Z,30.21
2018-09-19T12:13:31.755Z,30.14
2018-09-19T12:15:35.488Z,30.44
2018-09-19T12:17:38.438Z,30.49
2018-09-19T12:19:43.197Z,30.78
2018-09-19T12:21:46.366Z,30.92
2018-09-19T12:23:49.454Z,30.69
2018-09-19T12:25:52.394Z,31.26
2018-09-19T12:27:55.688Z,31.04
2018-09-19T12:29:58.802Z,31.03
2018-09-19T12:32:01.790Z,30.74
2018-09-19T12:34:04.945Z,31.56
2018-09-19T12:36:07.906Z,31.82
2018-09-19T12:38:10.844Z,31.88
2018-09-19T12:40:15.908Z,32.06
2018-09-19T12:42:19.943Z,32.11
2018-09-19T12:44:24.270Z,32.15
2018-09-19T12:46:27.241Z,32.14
2018-09-19T12:48:30.249Z,31.46
2018-09-19T12:50:33.413Z,31.50
2018-09-19T12:52:36.576Z,31.04
2018-09-19T12:54:39.539Z,31.61
2018-09-19T12:56:44.040Z,31.67
2018-09-19T12:58:47.088Z,31.42
2018-09-19T13:00:50.536Z,31.85
2018-09-19T13:02:53.559Z,31.75
2018-09-19T13:07:05.497Z,31.90
2018-09-19T13:09:10.016Z,32.13
2018-09-19T13:11:14.857Z,32.00
2018-09-19T13:13:17.840Z,32.33
2018-09-19T13:15:20.838Z,32.41
2018-09-19T13:17:23.814Z,31.03
2018-09-19T13:19:26.802Z,31.23
2018-09-19T13:21:29.733Z,31.44
2018-09-19T13:23:32.802Z,31.72
2018-09-19T13:25:35.796Z,31.71
2018-09-19T13:27:38.773Z,32.13
2018-09-19T13:29:43.786Z,32.28
2018-09-19T13:31:46.755Z,31.60
2018-09-19T13:33:49.700Z,31.77
2018-09-19T13:35:52.736Z,32.43
2018-09-19T13:37:55.698Z,31.98
2018-09-19T13:39:58.825Z,31.96
2018-09-19T13:42:02.236Z,32.38
2018-09-19T13:44:05.231Z,31.68
2018-09-19T13:46:08.480Z,31.76
2018-09-19T13:48:13.001Z,32.35
2018-09-19T13:51:21.976Z,32.41
2018-09-19T13:53:25.074Z,32.20
2018-09-19T13:55:28.164Z,32.22
2018-09-19T13:57:31.218Z,32.48
2018-09-19T13:59:34.490Z,32.49
2018-09-19T14:01:37.580Z,32.51
2018-09-19T14:03:40.652Z,32.53
2018-09-19T14:05:45.601Z,32.18
2018-09-19T14:07:48.692Z,32.29
2018-09-19T14:09:51.780Z,31.88
2018-09-19T14:11:55.125Z,31.96
2018-09-19T14:13:58.177Z,31.83
2018-09-19T14:16:01.232Z,32.29
2018-09-19T14:18:04.689Z,32.11
2018-09-19T14:20:07.770Z,32.02
2018-09-19T14:22:10.873Z,31.72
2018-09-19T14:24:16.113Z,32.00
2018-09-19T14:26:19.249Z,31.99
2018-09-19T14:28:22.352Z,31.86
2018-09-19T14:30:25.810Z,32.11
2018-09-19T14:32:28.864Z,32.74
2018-09-19T14:34:31.909Z,31.88
2018-09-19T14:36:35.297Z,32.37
2018-09-19T14:38:38.412Z,31.97
2018-09-19T14:40:43.669Z,32.52
2018-09-19T14:42:46.977Z,32.70
2018-09-19T14:44:50.025Z,32.49
2018-09-19T14:46:52.970Z,32.38
2018-09-19T14:48:56.306Z,32.18
2018-09-19T14:50:59.252Z,32.62
2018-09-19T14:53:02.202Z,32.69
2018-09-19T14:55:05.395Z,32.82
2018-09-19T14:57:08.348Z,32.71
2018-09-19T14:59:13.048Z,32.64
2018-09-19T15:01:16.343Z,32.79
2018-09-19T15:03:19.337Z,32.90
2018-09-19T15:05:22.313Z,32.64
2018-09-19T15:07:25.561Z,32.73
2018-09-19T15:09:28.591Z,32.59
2018-09-19T15:11:31.577Z,32.49
2018-09-19T15:13:34.875Z,33.22
2018-09-19T15:15:37.884Z,34.20
2018-09-19T15:17:41.045Z,33.21
2018-09-19T15:19:44.041Z,33.32
2018-09-19T15:21:47.004Z,33.82
2018-09-19T15:23:50.794Z,34.45
2018-09-19T15:25:53.744Z,34.41
2018-09-19T15:27:56.767Z,34.32
2018-09-19T15:29:59.927Z,33.69
2018-09-19T15:32:02.892Z,33.98
2018-09-19T15:34:05.925Z,34.14
2018-09-19T15:36:09.139Z,33.30
2018-09-19T15:38:13.524Z,33.48
2018-09-19T15:40:16.445Z,34.47
2018-09-19T15:42:19.916Z,33.40
2018-09-19T15:44:23.090Z,33.22
2018-09-19T15:46:26.209Z,33.90
2018-09-19T15:48:29.499Z,34.26
2018-09-19T15:50:32.571Z,34.99
2018-09-19T15:52:35.800Z,34.49
2018-09-19T15:54:38.895Z,33.67
2018-09-19T15:56:43.564Z,33.56
2018-09-19T15:58:46.910Z,34.17
2018-09-19T16:00:50.190Z,33.09
2018-09-19T16:02:53.234Z,33.39
2018-09-19T16:04:56.541Z,33.53
2018-09-19T16:06:59.761Z,32.81
2018-09-19T16:09:03.913Z,33.37
2018-09-19T16:11:07.299Z,32.21
2018-09-19T16:13:10.371Z,32.06
2018-09-19T16:15:15.142Z,32.45
2018-09-19T16:17:18.454Z,32.61
2018-09-19T16:19:21.531Z,31.92
2018-09-19T16:21:24.620Z,31.62
2018-09-19T16:23:27.913Z,31.83
2018-09-19T16:25:30.996Z,31.84
2018-09-19T16:27:34.066Z,31.76
2018-09-19T16:29:37.420Z,31.66
2018-09-19T16:31:40.451Z,30.29
2018-09-19T16:33:45.482Z,30.71
2018-09-19T16:35:48.915Z,30.48
2018-09-19T16:37:51.946Z,30.70
2018-09-19T16:39:55.061Z,30.44
2018-09-19T16:41:58.985Z,29.89
2018-09-19T16:44:02.063Z,30.30
2018-09-19T16:46:05.502Z,30.07
2018-09-19T16:48:08.860Z,29.97
2018-09-19T16:50:13.301Z,30.12
2018-09-19T16:52:16.328Z,29.89
2018-09-19T16:54:19.610Z,29.87
2018-09-19T16:56:22.667Z,29.63
2018-09-19T16:58:25.732Z,29.82
2018-09-19T17:00:29.068Z,29.64
2018-09-19T17:02:32.124Z,29.32
2018-09-19T17:04:35.195Z,29.34
2018-09-19T17:06:38.465Z,29.31
2018-09-19T17:08:43.330Z,29.21
2018-09-19T17:10:46.417Z,29.17
2018-09-19T17:12:49.749Z,29.09
2018-09-19T17:14:52.839Z,28.96
2018-09-19T17:16:55.977Z,28.94
2018-09-19T17:18:59.300Z,28.85
2018-09-19T17:21:02.395Z,28.81
2018-09-19T17:23:05.446Z,28.71
2018-09-19T17:25:08.763Z,28.66
2018-09-19T17:27:13.243Z,28.61
2018-09-19T17:29:16.317Z,28.46
2018-09-19T17:31:19.666Z,28.39
2018-09-19T17:33:22.695Z,28.58
2018-09-19T17:35:25.731Z,28.43
2018-09-19T17:37:28.982Z,27.98
2018-09-19T17:39:32.218Z,27.68
2018-09-19T17:41:35.287Z,27.58
2018-09-19T17:43:39.929Z,27.20
2018-09-19T17:45:44.587Z,27.30
2018-09-19T17:47:47.737Z,27.43
2018-09-19T17:49:51.203Z,27.24
2018-09-19T17:51:54.284Z,27.14
2018-09-19T17:53:57.310Z,27.17
2018-09-19T17:56:00.716Z,27.10
2018-09-19T17:58:04.078Z,26.96
2018-09-19T18:00:08.721Z,26.83
2018-09-19T18:02:13.484Z,26.81
2018-09-19T18:04:16.527Z,26.74
2018-09-19T18:06:19.544Z,26.73
2018-09-19T18:08:22.711Z,26.63
2018-09-19T18:10:25.697Z,26.62
2018-09-19T18:12:28.703Z,26.61
2018-09-19T18:14:31.935Z,26.49
2018-09-19T18:16:35.151Z,26.38
2018-09-19T18:18:38.140Z,26.33
2018-09-19T18:20:41.190Z,26.21
2018-09-19T18:22:45.305Z,26.13
2018-09-19T18:24:48.386Z,26.12
2018-09-19T18:26:51.444Z,26.08
2018-09-19T18:28:54.993Z,26.04
2018-09-19T18:30:58.033Z,26.04
2018-09-19T18:33:01.230Z,25.94
2018-09-19T18:35:04.520Z,25.85
2018-09-19T18:37:24.665Z,25.81
2018-09-19T18:39:27.640Z,25.74
2018-09-19T18:41:30.861Z,25.68
2018-09-19T18:43:33.837Z,25.64
2018-09-19T18:45:37.932Z,25.57
2018-09-19T18:47:42.582Z,25.46
2018-09-19T18:49:45.782Z,25.53
2018-09-19T18:51:48.847Z,25.42
2018-09-19T18:53:52.102Z,25.34
2018-09-19T18:55:55.192Z,25.22
2018-09-19T18:57:58.218Z,25.10
2018-09-19T19:00:01.480Z,25.08
2018-09-19T19:02:04.555Z,25.04
2018-09-19T19:04:07.630Z,24.96
2018-09-19T19:06:10.933Z,24.96
2018-09-19T19:08:15.487Z,24.89
2018-09-19T19:10:18.539Z,24.86
2018-09-19T19:12:21.860Z,24.74
2018-09-19T19:14:24.936Z,24.65
2018-09-19T19:16:27.981Z,24.68
2018-09-19T19:18:31.285Z,24.63
2018-09-19T19:20:34.423Z,24.62
2018-09-19T19:22:37.513Z,24.68
2018-09-19T19:24:40.765Z,24.72
2018-09-19T19:26:45.282Z,24.62
2018-09-19T19:28:48.368Z,24.39
2018-09-19T19:30:51.646Z,24.44
2018-09-19T19:32:54.701Z,24.45
2018-09-19T19:34:57.823Z,24.40
2018-09-19T19:37:01.088Z,24.34
2018-09-19T19:39:07.853Z,24.26
2018-09-19T19:41:11.001Z,24.17
2018-09-19T19:43:15.454Z,24.15
2018-09-19T19:45:18.544Z,24.17
2018-09-19T19:47:22.531Z,24.06
2018-09-19T19:49:25.764Z,23.98
2018-09-19T19:51:28.860Z,23.99
2018-09-19T19:53:31.974Z,23.96
2018-09-19T19:55:35.450Z,24.05
2018-09-19T19:57:38.478Z,23.96
2018-09-19T19:59:43.177Z,23.85
2018-09-19T20:01:46.539Z,23.93
2018-09-19T20:03:49.605Z,23.79
2018-09-19T20:05:52.686Z,23.86
2018-09-19T20:07:55.979Z,23.79
2018-09-19T20:09:59.031Z,23.75
2018-09-19T20:12:02.072Z,23.66
2018-09-19T20:14:05.497Z,23.67
2018-09-19T20:16:08.556Z,23.62
2018-09-19T20:18:13.214Z,23.63
2018-09-19T20:20:16.609Z,23.55
2018-09-19T20:22:19.692Z,23.52
2018-09-19T20:24:22.771Z,23.50
2018-09-19T20:26:26.060Z,23.48
2018-09-19T20:28:29.099Z,23.43
2018-09-19T20:30:32.192Z,23.36
2018-09-19T20:32:35.461Z,23.26
2018-09-19T20:34:38.564Z,23.18
2018-09-19T20:36:43.406Z,23.13
2018-09-19T20:38:46.700Z,23.05
2018-09-19T20:40:49.998Z,23.07
2018-09-19T20:42:53.034Z,23.11
2018-09-19T20:44:56.504Z,23.05
2018-09-19T20:46:59.587Z,23.00
2018-09-19T20:49:02.976Z,22.99
2018-09-19T20:51:06.272Z,22.96
2018-09-19T20:53:10.112Z,22.92
2018-09-19T20:55:14.871Z,22.89
2018-09-19T20:57:18.170Z,22.85
2018-09-19T20:59:21.263Z,22.88
2018-09-19T21:01:24.996Z,22.87
2018-09-19T21:03:28.537Z,22.79
2018-09-19T21:05:31.614Z,22.81
2018-09-19T21:07:34.652Z,22.64
2018-09-19T21:09:38.047Z,22.77
2018-09-19T21:11:41.121Z,22.79
2018-09-19T21:13:45.440Z,22.74
2018-09-19T21:15:48.968Z,22.79
2018-09-19T21:17:52.059Z,22.69
2018-09-19T21:19:55.176Z,22.65
2018-09-19T21:21:59.429Z,22.57
2018-09-19T21:24:02.495Z,22.62
2018-09-19T21:26:05.639Z,22.49
2018-09-19T21:28:08.953Z,22.57
2018-09-19T21:30:13.792Z,22.38
2018-09-19T21:32:16.897Z,22.28
2018-09-19T21:34:20.317Z,22.25
2018-09-19T21:36:23.398Z,22.17
2018-09-19T21:38:26.464Z,22.08
2018-09-19T21:40:29.822Z,22.05
2018-09-19T21:42:32.895Z,22.07
2018-09-19T21:44:36.479Z,22.05
2018-09-19T21:46:39.723Z,21.97
2018-09-19T21:48:44.081Z,21.93
2018-09-19T21:50:47.045Z,21.91
2018-09-19T21:52:50.361Z,21.88
2018-09-19T21:54:53.337Z,21.89
2018-09-19T21:56:56.664Z,21.85
2018-09-19T21:58:59.628Z,21.89
2018-09-19T22:01:08.077Z,21.92
2018-09-19T22:03:13.052Z,21.96
2018-09-19T22:05:16.145Z,21.94
2018-09-19T22:07:19.131Z,21.91
2018-09-19T22:09:22.420Z,21.86
2018-09-19T22:11:25.410Z,21.80
2018-09-19T22:13:28.410Z,21.83
2018-09-19T22:15:31.673Z,21.83
2018-09-19T22:17:34.646Z,21.78
2018-09-19T22:19:37.656Z,21.71
2018-09-19T22:21:40.901Z,21.66
2018-09-19T22:23:45.649Z,21.62
2018-09-19T22:25:48.671Z,21.59
2018-09-19T22:27:51.827Z,21.54
2018-09-19T22:29:54.814Z,21.52
2018-09-19T22:31:57.789Z,21.51
2018-09-19T22:34:01.112Z,21.49
2018-09-19T22:36:04.092Z,21.42
2018-09-19T22:38:07.128Z,21.46
2018-09-19T22:40:10.435Z,21.44
2018-09-19T22:42:14.780Z,21.37
2018-09-19T22:44:17.877Z,21.41
2018-09-19T22:46:21.452Z,21.40
2018-09-19T22:48:24.546Z,21.32
2018-09-19T22:50:27.626Z,21.28
2018-09-19T22:52:31.012Z,21.23
2018-09-19T22:54:34.080Z,21.22
2018-09-19T22:56:37.121Z,21.24
2018-09-19T22:58:40.436Z,21.15
2018-09-19T23:00:45.162Z,21.06
2018-09-19T23:02:48.334Z,21.03
2018-09-19T23:04:51.736Z,20.90
2018-09-19T23:06:54.789Z,20.90
2018-09-19T23:08:57.845Z,20.91
2018-09-19T23:11:01.204Z,20.88
2018-09-19T23:13:04.262Z,20.85
2018-09-19T23:15:07.312Z,20.83
2018-09-19T23:17:10.619Z,20.87
2018-09-19T23:19:15.417Z,20.89
2018-09-19T23:21:18.519Z,20.87
2018-09-19T23:23:21.882Z,20.82
2018-09-19T23:25:24.955Z,20.80
2018-09-19T23:27:28.007Z,20.76
2018-09-19T23:29:31.257Z,20.72
2018-09-19T23:31:34.366Z,20.73
2018-09-19T23:33:37.491Z,20.61
2018-09-19T23:35:40.757Z,20.65
2018-09-19T23:37:45.676Z,20.71
2018-09-19T23:39:48.666Z,20.65
2018-09-19T23:41:51.829Z,20.64
2018-09-19T23:43:54.782Z,20.68
2018-09-19T23:45:57.771Z,20.60
2018-09-19T23:48:00.961Z,20.71
2018-09-19T23:50:03.988Z,20.83
2018-09-19T23:52:07.001Z,20.74
2018-09-19T23:54:10.244Z,20.76
2018-09-19T23:56:14.696Z,20.63
2018-09-19T23:58:17.680Z,20.60
